createdAt,value
2016-07-21T00:00:31.103Z,1151.45
2016-07-21T00:01:53.788Z,1151.66
2016-07-21T00:03:16.657Z,1151.75
2016-07-21T00:04:40.943Z,1151.86
2016-07-21T00:06:08.499Z,1151.93
2016-07-21T00:07:32.753Z,1152.04
2016-07-21T00:08:55.567Z,1152.15
2016-07-21T00:10:19.476Z,1152.28
2016-07-21T00:11:46.669Z,1152.41
2016-07-21T00:13:10.588Z,1152.48
2016-07-21T00:14:37.276Z,1152.57
2016-07-21T00:15:59.025Z,1152.56
2016-07-21T00:17:22.744Z,1152.62
2016-07-21T00:18:48.179Z,1152.65
2016-07-21T00:20:14.017Z,1152.71
2016-07-21T00:21:34.666Z,1152.75
2016-07-21T00:22:58.417Z,1152.84
2016-07-21T00:24:25.075Z,1152.91
2016-07-21T00:25:46.933Z,1153.06
2016-07-21T00:27:10.437Z,1153.19
2016-07-21T00:28:38.798Z,1153.3
2016-07-21T00:30:06.466Z,1153.36
2016-07-21T00:31:31.469Z,1153.47
2016-07-21T00:32:56.601Z,1153.52
2016-07-21T00:34:19.678Z,1153.54
2016-07-21T00:35:44.726Z,1153.51
2016-07-21T00:37:18.220Z,1153.57
2016-07-21T00:38:49.297Z,1153.61
2016-07-21T00:39:52.938Z,1153.64
2016-07-21T00:40:59.909Z,1153.67
2016-07-21T00:42:28.444Z,1153.72
2016-07-21T00:43:49.911Z,1153.75
2016-07-21T00:45:09.351Z,1153.74
2016-07-21T00:46:12.489Z,1153.77
2016-07-21T00:47:41.160Z,1153.78
2016-07-21T00:49:03.968Z,1153.85
2016-07-21T00:50:28.119Z,1153.89
2016-07-21T00:51:50.542Z,1153.93
2016-07-21T00:53:13.406Z,1153.99
2016-07-21T00:54:39.785Z,1153.98
2016-07-21T00:56:07.442Z,1154.04
2016-07-21T00:57:35.658Z,1154.09
2016-07-21T00:58:59.916Z,1154.08
2016-07-21T01:00:24.040Z,1154.11
2016-07-21T01:01:47.081Z,1154.12
2016-07-21T01:03:13.275Z,1154.13
2016-07-21T01:04:38.530Z,1154.23
2016-07-21T01:06:01.060Z,1154.24
2016-07-21T01:07:24.934Z,1154.29
2016-07-21T01:08:46.719Z,1154.32
2016-07-21T01:10:11.234Z,1154.4
2016-07-21T01:11:37.739Z,1154.45
2016-07-21T01:13:08.110Z,1154.46
2016-07-21T01:14:31.643Z,1154.45
2016-07-21T01:15:59.156Z,1154.49
2016-07-21T01:17:22.336Z,1154.48
2016-07-21T01:18:45.669Z,1154.45
2016-07-21T01:20:17.144Z,1154.4
2016-07-21T01:21:40.479Z,1154.44
2016-07-21T01:23:02.704Z,1154.43
2016-07-21T01:24:33.748Z,1154.46
2016-07-21T01:25:58.517Z,1154.48
2016-07-21T01:27:20.313Z,1154.5
2016-07-21T01:28:42.193Z,1154.47
2016-07-21T01:30:09.354Z,1154.5
2016-07-21T01:31:33.108Z,1154.54
2016-07-21T01:32:57.708Z,1154.62
2016-07-21T01:34:21.461Z,1154.69
2016-07-21T01:35:46.876Z,1154.72
2016-07-21T01:37:12.079Z,1154.7
2016-07-21T01:38:35.471Z,1154.71
2016-07-21T01:39:59.638Z,1154.73
2016-07-21T01:41:27.978Z,1154.75
2016-07-21T01:42:52.230Z,1154.74
2016-07-21T01:44:16.497Z,1154.77
2016-07-21T01:45:40.416Z,1154.78
2016-07-21T01:47:03.130Z,1154.76
2016-07-21T01:48:27.098Z,1154.79
2016-07-21T01:49:51.176Z,1154.89
2016-07-21T01:51:17.984Z,1154.9
2016-07-21T01:52:43.067Z,1154.93
2016-07-21T01:54:10.904Z,1154.98
2016-07-21T01:55:33.573Z,1154.97
2016-07-21T01:56:54.675Z,1154.94
2016-07-21T01:58:18.989Z,1154.96
2016-07-21T01:59:40.382Z,1154.95
2016-07-21T02:01:02.833Z,1154.96
2016-07-21T02:02:25.519Z,1154.97
2016-07-21T02:03:51.483Z,1155.01
2016-07-21T02:05:20.228Z,1155.01
2016-07-21T02:06:44.409Z,1155.07
2016-07-21T02:08:08.609Z,1155.08
2016-07-21T02:09:30.605Z,1155.06
2016-07-21T02:10:55.221Z,1155.06
2016-07-21T02:12:19.308Z,1155.05
2016-07-21T02:13:49.452Z,1155.1
2016-07-21T02:15:15.567Z,1155.08
2016-07-21T02:16:39.481Z,1155.05
2016-07-21T02:18:03.357Z,1155.02
2016-07-21T02:19:26.691Z,1155.07
2016-07-21T02:20:54.088Z,1155.04
2016-07-21T02:22:17.136Z,1155.07
2016-07-21T02:23:39.350Z,1155
2016-07-21T02:25:07.651Z,1155.05
2016-07-21T02:26:30.405Z,1155.02
2016-07-21T02:27:54.368Z,1155.09
2016-07-21T02:29:23.406Z,1155.08
2016-07-21T02:30:46.652Z,1155.02
2016-07-21T02:32:09.976Z,1155.01
2016-07-21T02:33:31.638Z,1155.03
2016-07-21T02:34:57.053Z,1155.05
2016-07-21T02:36:21.485Z,1155.08
2016-07-21T02:37:44.429Z,1155.06
2016-07-21T02:39:08.013Z,1155
2016-07-21T02:40:36.429Z,1154.95
2016-07-21T02:42:06.713Z,1154.96
2016-07-21T02:43:28.636Z,1154.93
2016-07-21T02:44:54.951Z,1154.9
2016-07-21T02:46:22.891Z,1154.94
2016-07-21T02:47:45.047Z,1154.95
2016-07-21T02:49:15.324Z,1154.93
2016-07-21T02:50:40.043Z,1154.93
2016-07-21T02:52:02.459Z,1154.95
2016-07-21T02:53:30.554Z,1154.94
2016-07-21T02:54:54.093Z,1154.92
2016-07-21T02:56:18.273Z,1154.93
2016-07-21T02:57:48.583Z,1154.94
2016-07-21T02:59:11.574Z,1154.94
2016-07-21T03:00:35.092Z,1154.93
2016-07-21T03:02:00.877Z,1154.93
2016-07-21T03:03:27.360Z,1154.92
2016-07-21T03:04:52.916Z,1154.9
2016-07-21T03:06:16.794Z,1154.87
2016-07-21T03:07:40.000Z,1154.9
2016-07-21T03:09:02.810Z,1154.96
2016-07-21T03:10:33.907Z,1154.95
2016-07-21T03:11:57.322Z,1154.98
2016-07-21T03:13:20.615Z,1155.01
2016-07-21T03:14:41.788Z,1155.01
2016-07-21T03:16:06.572Z,1155.02
2016-07-21T03:17:31.997Z,1155.02
2016-07-21T03:18:56.738Z,1155.01
2016-07-21T03:20:21.030Z,1155.02
2016-07-21T03:21:46.242Z,1155.02
2016-07-21T03:23:09.881Z,1155.09
2016-07-21T03:24:31.804Z,1155.18
2016-07-21T03:25:57.601Z,1155.18
2016-07-21T03:27:23.026Z,1155.18
2016-07-21T03:28:47.613Z,1155.21
2016-07-21T03:30:06.457Z,1155.19
2016-07-21T03:31:32.297Z,1155.26
2016-07-21T03:32:56.326Z,1155.25
2016-07-21T03:34:19.066Z,1155.24
2016-07-21T03:35:46.687Z,1155.28
2016-07-21T03:37:09.518Z,1155.23
2016-07-21T03:38:32.448Z,1155.29
2016-07-21T03:39:57.046Z,1155.27
2016-07-21T03:41:22.396Z,1155.3
2016-07-21T03:42:47.049Z,1155.32
2016-07-21T03:44:11.073Z,1155.35
2016-07-21T03:45:35.995Z,1155.41
2016-07-21T03:47:00.592Z,1155.41
2016-07-21T03:48:23.346Z,1155.47
2016-07-21T03:49:48.864Z,1155.47
2016-07-21T03:51:14.631Z,1155.5
2016-07-21T03:52:41.137Z,1155.55
2016-07-21T03:54:03.886Z,1155.56
2016-07-21T03:55:27.170Z,1155.56
2016-07-21T03:56:53.327Z,1155.6
2016-07-21T03:58:14.915Z,1155.61
2016-07-21T03:59:36.386Z,1155.55
2016-07-21T04:01:00.409Z,1155.54
2016-07-21T04:02:24.309Z,1155.51
2016-07-21T04:03:51.301Z,1155.45
2016-07-21T04:05:17.907Z,1155.37
2016-07-21T04:06:37.304Z,1155.32
2016-07-21T04:08:10.626Z,1155.25
2016-07-21T04:09:33.440Z,1155.14
2016-07-21T04:10:56.031Z,1155.09
2016-07-21T04:12:17.242Z,1154.97
2016-07-21T04:13:38.700Z,1154.86
2016-07-21T04:14:27.935Z,1154.78
2016-07-21T04:15:40.552Z,1154.72
2016-07-21T04:17:04.822Z,1154.58
2016-07-21T04:18:26.528Z,1154.4
2016-07-21T04:19:48.698Z,1154.24
2016-07-21T04:21:12.124Z,1153.98
2016-07-21T04:22:36.031Z,1153.83
2016-07-21T04:24:01.398Z,1153.64
2016-07-21T04:25:25.539Z,1153.48
2016-07-21T04:26:48.222Z,1153.31
2016-07-21T04:28:15.255Z,1153.22
2016-07-21T04:29:38.020Z,1153.04
2016-07-21T04:31:01.970Z,1152.93
2016-07-21T04:32:26.718Z,1152.76
2016-07-21T04:33:51.563Z,1152.7
2016-07-21T04:35:13.535Z,1152.63
2016-07-21T04:36:38.190Z,1152.45
2016-07-21T04:38:01.703Z,1152.48
2016-07-21T04:39:27.523Z,1152.42
2016-07-21T04:40:50.662Z,1152.41
2016-07-21T04:42:20.116Z,1152.32
2016-07-21T04:43:45.964Z,1152.15
2016-07-21T04:45:13.215Z,1151.82
2016-07-21T04:46:36.206Z,1151.55
2016-07-21T04:47:59.802Z,1151.28
2016-07-21T04:49:22.752Z,1150.95
2016-07-21T04:50:46.124Z,1150.54
2016-07-21T04:52:11.569Z,1150.14
2016-07-21T04:53:36.249Z,1149.62
2016-07-21T04:55:00.550Z,1149.24
2016-07-21T04:56:23.984Z,1148.77
2016-07-21T04:57:48.589Z,1148.38
2016-07-21T04:59:10.802Z,1147.96
2016-07-21T05:00:31.824Z,1147.62
2016-07-21T05:01:53.896Z,1147.22
2016-07-21T05:03:18.940Z,1146.89
2016-07-21T05:04:42.183Z,1146.54
2016-07-21T05:06:06.611Z,1146.21
2016-07-21T05:07:41.939Z,1145.83
2016-07-21T05:09:09.292Z,1145.55
2016-07-21T05:10:34.570Z,1145.22
2016-07-21T05:11:58.746Z,1144.98
2016-07-21T05:13:22.999Z,1144.57
2016-07-21T05:14:45.673Z,1144.05
2016-07-21T05:16:11.078Z,1143.54
2016-07-21T05:17:25.636Z,1143.2
2016-07-21T05:18:21.336Z,1142.72
2016-07-21T05:19:21.338Z,1142.3
2016-07-21T05:20:21.342Z,1141.94
2016-07-21T05:21:21.348Z,1141.5
2016-07-21T05:22:21.369Z,1141.13
2016-07-21T05:23:21.353Z,1140.71
2016-07-21T05:24:21.342Z,1140.32
2016-07-21T05:25:21.340Z,1139.94
2016-07-21T05:26:21.471Z,1139.56
2016-07-21T05:27:21.679Z,1139.07
2016-07-21T05:28:21.352Z,1138.63
2016-07-21T05:29:22.034Z,1138.39
2016-07-21T05:30:21.686Z,1137.93
2016-07-21T05:31:21.368Z,1137.29
2016-07-21T05:32:21.367Z,1136.82
2016-07-21T05:33:21.388Z,1136.29
2016-07-21T05:34:21.523Z,1135.53
2016-07-21T05:35:21.582Z,1135.01
2016-07-21T05:36:21.486Z,1134.3
2016-07-21T05:37:21.783Z,1133.6
2016-07-21T05:38:21.607Z,1132.87
2016-07-21T05:39:21.523Z,1132.22
2016-07-21T05:40:21.362Z,1131.54
2016-07-21T05:41:21.355Z,1130.82
2016-07-21T05:42:21.380Z,1129.84
2016-07-21T05:43:21.433Z,1129.06
2016-07-21T05:44:21.366Z,1128.22
2016-07-21T05:45:21.376Z,1127.28
2016-07-21T05:46:21.366Z,1126.52
2016-07-21T05:47:21.370Z,1125.85
2016-07-21T05:48:21.370Z,1124.66
2016-07-21T05:49:21.373Z,1123.63
2016-07-21T05:50:21.380Z,1122.71
2016-07-21T05:51:21.400Z,1121.92
2016-07-21T05:52:21.378Z,1120.89
2016-07-21T05:53:21.371Z,1119.82
2016-07-21T05:54:21.382Z,1118.55
2016-07-21T05:55:21.401Z,1117.26
2016-07-21T05:56:21.399Z,1116.13
2016-07-21T05:57:21.387Z,1114.84
2016-07-21T05:58:21.373Z,1114.04
2016-07-21T05:59:21.392Z,1112.85
2016-07-21T06:00:21.399Z,1111.28
2016-07-21T06:01:21.406Z,1110.16
2016-07-21T06:02:21.433Z,1108.95
2016-07-21T06:03:21.472Z,1107.72
2016-07-21T06:04:21.398Z,1106.19
2016-07-21T06:05:21.401Z,1104.43
2016-07-21T06:06:21.379Z,1102.82
2016-07-21T06:07:21.400Z,1101.54
2016-07-21T06:08:21.400Z,1100.11
2016-07-21T06:09:21.399Z,1098.97
2016-07-21T06:10:21.386Z,1097.94
2016-07-21T06:11:21.399Z,1096.2
2016-07-21T06:12:21.400Z,1094.49
2016-07-21T06:13:21.397Z,1092.6
2016-07-21T06:14:21.403Z,1090.3
2016-07-21T06:15:21.385Z,1088.42
2016-07-21T06:16:21.418Z,1086.29
2016-07-21T06:17:21.397Z,1084.19
2016-07-21T06:18:21.397Z,1081.9
2016-07-21T06:19:21.389Z,1079.4
2016-07-21T06:20:21.398Z,1076.97
2016-07-21T06:21:21.403Z,1075.08
2016-07-21T06:22:21.407Z,1074.32
2016-07-21T06:23:31.365Z,1072.42
2016-07-21T06:24:28.985Z,1070.42
2016-07-21T06:25:33.061Z,1067.72
2016-07-21T06:26:41.819Z,1064.9
2016-07-21T06:27:48.093Z,1062.17
2016-07-21T06:29:12.593Z,1057.31
2016-07-21T06:30:31.901Z,1053.2
2016-07-21T06:31:53.554Z,1048.25
2016-07-21T06:32:56.713Z,1044.93
2016-07-21T06:33:48.147Z,1042.3
2016-07-21T06:34:48.113Z,1039.98
2016-07-21T06:35:48.133Z,1037.18
2016-07-21T06:36:58.625Z,1033.87
2016-07-21T06:38:01.745Z,1029.79
2016-07-21T06:39:09.165Z,1025.94
2016-07-21T06:40:13.664Z,1022.79
2016-07-21T06:41:16.587Z,1020.09
2016-07-21T06:42:18.723Z,1017.63
2016-07-21T06:43:09.191Z,1015.13
2016-07-21T06:44:17.669Z,1013.1
2016-07-21T06:45:08.990Z,1012.62
2016-07-21T06:46:21.278Z,1010.65
2016-07-21T06:47:43.402Z,1006.9
2016-07-21T06:49:10.500Z,1003.97
2016-07-21T06:50:31.648Z,1001.18
2016-07-21T06:51:19.602Z,998.41
2016-07-21T06:52:28.710Z,996.53
2016-07-21T06:53:35.062Z,994.43
2016-07-21T06:54:39.287Z,988.72
2016-07-21T06:55:44.045Z,971.88
2016-07-21T06:56:36.642Z,945.09
2016-07-21T06:57:36.656Z,916.27
2016-07-21T06:58:36.645Z,897.32
2016-07-21T06:59:36.641Z,873.88
2016-07-21T07:00:36.644Z,860.73
2016-07-21T07:01:36.675Z,858.37
2016-07-21T07:02:36.646Z,857.78
2016-07-21T07:03:36.660Z,856.05
2016-07-21T07:04:36.685Z,852.78
2016-07-21T07:05:46.205Z,846.01
2016-07-21T07:06:36.659Z,840.5
2016-07-21T07:07:36.741Z,831.26
2016-07-21T07:08:36.673Z,816
2016-07-21T07:09:36.671Z,804.71
2016-07-21T07:10:36.672Z,788.25
2016-07-21T07:11:36.661Z,773.28
2016-07-21T07:12:36.675Z,760.34
2016-07-21T07:13:36.679Z,748.17
2016-07-21T07:14:36.671Z,735.66
2016-07-21T07:15:36.668Z,725.38
2016-07-21T07:16:36.669Z,717.68
2016-07-21T07:17:36.703Z,708.9
2016-07-21T07:18:36.683Z,700.36
2016-07-21T07:19:36.717Z,694.77
2016-07-21T07:20:36.711Z,693.69
2016-07-21T07:21:36.681Z,697.35
2016-07-21T07:22:36.673Z,702.1
2016-07-21T07:23:36.676Z,712.84
2016-07-21T07:24:36.676Z,725.69
2016-07-21T07:25:36.676Z,740.7
2016-07-21T07:26:36.696Z,759.03
2016-07-21T07:27:36.707Z,774.12
2016-07-21T07:28:36.676Z,781.37
2016-07-21T07:29:36.689Z,780.42
2016-07-21T07:30:36.748Z,777.39
2016-07-21T07:31:36.705Z,773.21
2016-07-21T07:32:36.705Z,770.97
2016-07-21T07:33:36.694Z,767.56
2016-07-21T07:34:36.705Z,765.46
2016-07-21T07:35:36.688Z,765.63
2016-07-21T07:36:36.708Z,765.32
2016-07-21T07:37:36.691Z,763.22
2016-07-21T07:38:36.704Z,758.66
2016-07-21T07:39:36.704Z,753.45
2016-07-21T07:40:36.695Z,750.62
2016-07-21T07:41:36.699Z,747.51
2016-07-21T07:42:36.693Z,745.68
2016-07-21T07:43:36.702Z,745.35
2016-07-21T07:44:36.692Z,746.99
2016-07-21T07:45:36.700Z,745.01
2016-07-21T07:46:36.705Z,744.02
2016-07-21T07:47:36.699Z,743.33
2016-07-21T07:48:36.693Z,744.17
2016-07-21T07:49:36.706Z,744.05
2016-07-21T07:50:36.707Z,742.7
2016-07-21T07:51:36.707Z,741.41
2016-07-21T07:52:36.723Z,740.58
2016-07-21T07:53:36.703Z,741.55
2016-07-21T07:54:36.741Z,744.7
2016-07-21T07:55:36.769Z,749.84
2016-07-21T07:56:36.736Z,753.65
2016-07-21T07:57:36.743Z,754.69
2016-07-21T07:58:36.740Z,755.3
2016-07-21T07:59:36.732Z,755.48
2016-07-21T08:00:36.721Z,756.81
2016-07-21T08:01:36.730Z,757.48
2016-07-21T08:02:36.718Z,760.77
2016-07-21T08:03:36.716Z,766.62
2016-07-21T08:04:36.724Z,772.11
2016-07-21T08:05:36.732Z,774.73
2016-07-21T08:06:36.722Z,777.42
2016-07-21T08:07:36.811Z,779.65
2016-07-21T08:08:36.737Z,781.88
2016-07-21T08:09:36.738Z,785.49
2016-07-21T08:10:36.738Z,786.75
2016-07-21T08:11:36.764Z,788.34
2016-07-21T08:12:36.747Z,788.09
2016-07-21T08:13:36.730Z,788.06
2016-07-21T08:14:36.742Z,786.65
2016-07-21T08:15:36.747Z,785.89
2016-07-21T08:16:36.796Z,787.16
2016-07-21T08:17:36.810Z,789.82
2016-07-21T08:18:36.764Z,791.21
2016-07-21T08:19:36.742Z,792.16
2016-07-21T08:20:36.735Z,793.26
2016-07-21T08:21:36.738Z,794.07
2016-07-21T08:22:36.955Z,792.04
2016-07-21T08:23:36.844Z,790.45
2016-07-21T08:24:36.748Z,789.69
2016-07-21T08:25:36.741Z,788.72
2016-07-21T08:26:36.747Z,787.78
2016-07-21T08:27:36.766Z,786.68
2016-07-21T08:28:36.779Z,784.93
2016-07-21T08:29:36.747Z,783.45
2016-07-21T08:30:36.769Z,780.82
2016-07-21T08:31:37.484Z,779.19
2016-07-21T08:32:36.768Z,777.08
2016-07-21T08:33:36.862Z,774.67
2016-07-21T08:34:37.023Z,773.54
2016-07-21T08:35:36.775Z,773.56
2016-07-21T08:36:36.767Z,775.77
2016-07-21T08:37:36.777Z,776.45
2016-07-21T08:38:36.767Z,776.76
2016-07-21T08:39:36.777Z,777.57
2016-07-21T08:40:36.781Z,776.43
2016-07-21T08:41:36.759Z,776.07
2016-07-21T08:42:36.768Z,776.46
2016-07-21T08:43:36.775Z,777.76
2016-07-21T08:44:36.766Z,777.62
2016-07-21T08:45:36.780Z,778.38
2016-07-21T08:46:36.769Z,779.99
2016-07-21T08:47:36.763Z,782.82
2016-07-21T08:48:36.769Z,787.25
2016-07-21T08:49:36.775Z,789.34
2016-07-21T08:50:36.859Z,791.04
2016-07-21T08:51:36.785Z,791.38
2016-07-21T08:52:36.775Z,790.93
2016-07-21T08:53:36.995Z,789.47
2016-07-21T08:54:37.441Z,789.64
2016-07-21T08:55:36.800Z,788.87
2016-07-21T08:56:36.796Z,787.12
2016-07-21T08:57:36.782Z,785.12
2016-07-21T08:58:36.790Z,783.51
2016-07-21T08:59:36.782Z,782.25
2016-07-21T09:00:36.920Z,782.23
2016-07-21T09:01:36.796Z,782.85
2016-07-21T09:02:36.799Z,783.13
2016-07-21T09:03:36.837Z,784.11
2016-07-21T09:04:36.788Z,785.5
2016-07-21T09:05:36.783Z,786.04
2016-07-21T09:06:36.781Z,787.42
2016-07-21T09:07:36.800Z,788.5
2016-07-21T09:08:36.797Z,788.05
2016-07-21T09:09:36.789Z,787.9
2016-07-21T09:10:36.796Z,788.23
2016-07-21T09:11:36.871Z,788.82
2016-07-21T09:12:36.910Z,786.75
2016-07-21T09:13:36.802Z,785.05
2016-07-21T09:14:36.803Z,784.43
2016-07-21T09:15:36.803Z,784.89
2016-07-21T09:16:36.813Z,784.58
2016-07-21T09:17:36.832Z,783.5
2016-07-21T09:18:36.808Z,783.29
2016-07-21T09:19:36.831Z,781.84
2016-07-21T09:20:36.810Z,780.44
2016-07-21T09:21:36.815Z,779.96
2016-07-21T09:22:36.822Z,779.6
2016-07-21T09:23:36.812Z,776.87
2016-07-21T09:24:36.809Z,773.66
2016-07-21T09:25:36.809Z,769.81
2016-07-21T09:26:36.831Z,765.91
2016-07-21T09:27:36.825Z,757.99
2016-07-21T09:28:36.832Z,748.97
2016-07-21T09:29:36.829Z,743.3
2016-07-21T09:30:36.823Z,744.12
2016-07-21T09:31:36.830Z,746.47
2016-07-21T09:32:36.820Z,747.64
2016-07-21T09:33:36.816Z,750.1
2016-07-21T09:34:36.820Z,750.28
2016-07-21T09:35:36.902Z,741.5
2016-07-21T09:36:36.834Z,722.98
2016-07-21T09:37:36.832Z,702.08
2016-07-21T09:38:36.829Z,682.93
2016-07-21T09:39:36.835Z,668
2016-07-21T09:40:36.825Z,656.18
2016-07-21T09:41:36.826Z,647
2016-07-21T09:42:36.837Z,639.01
2016-07-21T09:43:36.832Z,626.68
2016-07-21T09:44:36.866Z,617.01
2016-07-21T09:45:36.829Z,611.5
2016-07-21T09:46:36.834Z,610.74
2016-07-21T09:47:36.830Z,613.77
2016-07-21T09:48:36.835Z,612.85
2016-07-21T09:49:36.840Z,611.29
2016-07-21T09:50:36.869Z,607.48
2016-07-21T09:51:36.845Z,603.84
2016-07-21T09:52:36.837Z,595.29
2016-07-21T09:53:36.845Z,583.24
2016-07-21T09:54:36.849Z,573.43
2016-07-21T09:55:36.846Z,559.02
2016-07-21T09:56:36.850Z,546.42
2016-07-21T09:57:36.858Z,538.33
2016-07-21T09:58:36.863Z,531.45
2016-07-21T09:59:36.862Z,523.4
2016-07-21T10:00:36.847Z,515.03
2016-07-21T10:01:36.853Z,506.98
2016-07-21T10:02:36.852Z,494.05
2016-07-21T10:03:36.865Z,480.61
2016-07-21T10:04:36.866Z,466.82
2016-07-21T10:05:36.862Z,458.47
2016-07-21T10:06:36.864Z,457.63
2016-07-21T10:07:36.863Z,461.28
2016-07-21T10:08:36.891Z,464.92
2016-07-21T10:09:36.860Z,465.39
2016-07-21T10:10:36.867Z,465.16
2016-07-21T10:11:36.874Z,470.05
2016-07-21T10:12:36.880Z,476.19
2016-07-21T10:13:36.863Z,481.9
2016-07-21T10:14:36.866Z,489.27
2016-07-21T10:15:36.886Z,496.36
2016-07-21T10:16:36.906Z,501.83
2016-07-21T10:17:36.886Z,507.19
2016-07-21T10:18:36.874Z,513.19
2016-07-21T10:19:36.867Z,518.15
2016-07-21T10:20:36.906Z,517.55
2016-07-21T10:21:36.887Z,513.4
2016-07-21T10:22:36.875Z,509.9
2016-07-21T10:23:36.887Z,509.1
2016-07-21T10:24:36.878Z,508.52
2016-07-21T10:28:14.555Z,500.82
2016-07-21T10:29:05.903Z,498.74
2016-07-21T10:30:06.450Z,494.17
2016-07-21T10:31:05.903Z,488.7
2016-07-21T10:32:05.920Z,485.32
2016-07-21T10:33:05.904Z,485.33
2016-07-21T10:34:05.902Z,485.98
2016-07-21T10:35:05.905Z,490.01
2016-07-21T10:36:05.896Z,495.01
2016-07-21T10:37:05.921Z,501.06
2016-07-21T10:38:05.911Z,509.99
2016-07-21T10:39:06.023Z,514.53
2016-07-21T10:40:05.945Z,514.51
2016-07-21T10:41:05.947Z,513.1
2016-07-21T10:42:05.951Z,509.6
2016-07-21T10:43:05.906Z,505.23
2016-07-21T10:44:05.981Z,498.02
2016-07-21T10:45:06.290Z,488.56
2016-07-21T10:46:06.023Z,477.17
2016-07-21T10:47:05.963Z,469.12
2016-07-21T10:48:06.011Z,465.44
2016-07-21T10:49:06.020Z,459.69
2016-07-21T10:50:05.959Z,458.81
2016-07-21T10:51:05.939Z,465.26
2016-07-21T10:52:06.047Z,473.09
2016-07-21T10:53:06.022Z,476.7
2016-07-21T10:54:06.020Z,472.27
2016-07-21T10:55:05.993Z,467.73
2016-07-21T10:56:05.998Z,465.4
2016-07-21T10:57:05.944Z,464.93
2016-07-21T10:58:06.008Z,459.16
2016-07-21T10:59:05.991Z,454.03
2016-07-21T11:00:05.999Z,448.84
2016-07-21T11:01:05.989Z,446.21
2016-07-21T11:02:06.180Z,450.52
2016-07-21T11:03:05.977Z,465.72
2016-07-21T11:04:06.050Z,479.13
2016-07-21T11:05:29.831Z,489
2016-07-21T11:06:06.182Z,498.62
2016-07-21T11:07:05.978Z,508.77
2016-07-21T11:08:06.004Z,515.82
2016-07-21T11:09:06.032Z,519.3
2016-07-21T11:10:06.976Z,522.62
2016-07-21T11:11:05.947Z,523.61
2016-07-21T11:12:06.009Z,523.37
2016-07-21T11:13:05.944Z,521.93
2016-07-21T11:14:05.988Z,518.06
2016-07-21T11:15:06.001Z,517.65
2016-07-21T11:16:05.941Z,519.1
2016-07-21T11:17:05.953Z,519.68
2016-07-21T11:18:05.973Z,518.06
2016-07-21T11:19:05.964Z,514.14
2016-07-21T11:20:05.957Z,509.01
2016-07-21T11:21:05.951Z,498.41
2016-07-21T11:22:05.956Z,484.38
2016-07-21T11:23:05.952Z,469.14
2016-07-21T11:24:05.958Z,454.59
2016-07-21T11:25:06.053Z,440.73
2016-07-21T11:26:05.971Z,431.55
2016-07-21T11:27:05.991Z,425.67
2016-07-21T11:28:05.961Z,421.22
2016-07-21T11:29:05.974Z,418.4
2016-07-21T11:30:06.034Z,414.86
2016-07-21T11:31:05.958Z,409.33
2016-07-21T11:32:05.969Z,406
2016-07-21T11:33:05.969Z,402.87
2016-07-21T11:34:05.960Z,401.95
2016-07-21T11:35:05.966Z,404.83
2016-07-21T11:36:05.972Z,411.29
2016-07-21T11:37:05.973Z,421.86
2016-07-21T11:38:05.974Z,436.28
2016-07-21T11:39:05.968Z,451.92
2016-07-21T11:40:05.970Z,461.38
2016-07-21T11:41:05.967Z,477.51
2016-07-21T11:42:05.990Z,494.36
2016-07-21T11:43:05.972Z,510.62
2016-07-21T11:44:06.000Z,536.17
2016-07-21T11:45:06.016Z,559.11
2016-07-21T11:46:05.992Z,576.91
2016-07-21T11:47:05.989Z,589.79
2016-07-21T11:48:05.987Z,603.34
2016-07-21T11:49:05.984Z,618.78
2016-07-21T11:50:05.998Z,630.03
2016-07-21T11:51:06.000Z,635.64
2016-07-21T11:52:05.986Z,635.46
2016-07-21T11:53:05.999Z,628.93
2016-07-21T11:54:05.997Z,617.27
2016-07-21T11:55:06.003Z,607.76
2016-07-21T11:56:06.000Z,606.03
2016-07-21T11:57:06.006Z,604.71
2016-07-21T11:58:06.001Z,600.1
2016-07-21T11:59:05.991Z,596.64
2016-07-21T12:00:06.109Z,596.09
2016-07-21T12:01:06.005Z,595.49
2016-07-21T12:02:06.074Z,593.02
2016-07-21T12:03:06.017Z,591.28
2016-07-21T12:04:05.998Z,593.22
2016-07-21T12:05:06.000Z,594.73
2016-07-21T12:06:06.001Z,593.55
2016-07-21T12:07:06.018Z,593.72
2016-07-21T12:08:06.010Z,595.27
2016-07-21T12:09:06.021Z,591.47
2016-07-21T12:10:06.013Z,584.04
2016-07-21T12:11:06.035Z,573.49
2016-07-21T12:12:06.000Z,561.26
2016-07-21T12:13:06.021Z,550.7
2016-07-21T12:14:06.006Z,542.84
2016-07-21T12:15:06.079Z,535.57
2016-07-21T12:16:06.014Z,529.66
2016-07-21T12:17:06.072Z,523.53
2016-07-21T12:18:06.031Z,519.19
2016-07-21T12:19:06.039Z,515.91
2016-07-21T12:20:06.112Z,510.53
2016-07-21T12:21:06.092Z,502.84
2016-07-21T12:22:06.056Z,494.72
2016-07-21T12:23:06.034Z,486.71
2016-07-21T12:24:06.044Z,486.71
2016-07-21T12:25:06.155Z,493.21
2016-07-21T12:26:06.125Z,505.91
2016-07-21T12:27:06.036Z,521.61
2016-07-21T12:28:06.043Z,544.19
2016-07-21T12:29:06.055Z,564.55
2016-07-21T12:30:06.099Z,578.37
2016-07-21T12:31:06.126Z,586.54
2016-07-21T12:32:06.130Z,590.65
2016-07-21T12:33:06.091Z,594.14
2016-07-21T12:34:06.041Z,603.14
2016-07-21T12:35:06.051Z,609.86
2016-07-21T12:36:06.038Z,612.33
2016-07-21T12:37:06.091Z,613.87
2016-07-21T12:38:06.104Z,613.88
2016-07-21T12:39:06.111Z,615.13
2016-07-21T12:40:06.036Z,618.36
2016-07-21T12:41:06.039Z,619.34
2016-07-21T12:42:06.086Z,620.42
2016-07-21T12:43:06.062Z,619.68
2016-07-21T12:44:06.055Z,619.48
2016-07-21T12:45:06.105Z,618.51
2016-07-21T12:46:06.079Z,618.89
2016-07-21T12:47:06.065Z,618.49
2016-07-21T12:48:06.058Z,614.67
2016-07-21T12:49:06.185Z,610.84
2016-07-21T12:50:06.056Z,606.51
2016-07-21T12:51:06.061Z,603.59
2016-07-21T12:52:06.154Z,600.92
2016-07-21T12:53:06.065Z,597.84
2016-07-21T12:54:06.056Z,597.26
2016-07-21T12:55:06.077Z,596.71
2016-07-21T12:56:06.063Z,595.75
2016-07-21T12:57:06.078Z,592.45
2016-07-21T12:58:06.071Z,589.56
2016-07-21T12:59:06.064Z,590.14
2016-07-21T13:00:06.114Z,590.55
2016-07-21T13:01:06.063Z,593.83
2016-07-21T13:02:06.064Z,594.21
2016-07-21T13:03:06.071Z,592.26
2016-07-21T13:04:06.086Z,590.34
2016-07-21T13:05:06.065Z,587.6
2016-07-21T13:06:06.091Z,589.12
2016-07-21T13:07:06.071Z,594.16
2016-07-21T13:08:06.061Z,597.13
2016-07-21T13:09:06.110Z,598.87
2016-07-21T13:10:06.083Z,599.41
2016-07-21T13:11:06.080Z,596.96
2016-07-21T13:12:06.086Z,588.88
2016-07-21T13:13:06.095Z,578.52
2016-07-21T13:14:06.095Z,565.34
2016-07-21T13:15:06.094Z,555.57
2016-07-21T13:16:06.100Z,540.76
2016-07-21T13:17:06.128Z,527.92
2016-07-21T13:18:06.108Z,515.6
2016-07-21T13:19:06.086Z,505.42
2016-07-21T13:20:06.113Z,497.1
2016-07-21T13:21:06.095Z,486.81
2016-07-21T13:22:06.116Z,474.16
2016-07-21T13:23:06.099Z,461.15
2016-07-21T13:24:06.112Z,449.3
2016-07-21T13:25:06.100Z,439.79
2016-07-21T13:26:06.106Z,429.09
2016-07-21T13:27:06.115Z,420.5
2016-07-21T13:28:06.114Z,411.03
2016-07-21T13:29:06.108Z,400.76
2016-07-21T13:30:06.123Z,389.81
2016-07-21T13:31:06.096Z,379.67
2016-07-21T13:32:06.135Z,376.71
2016-07-21T13:33:06.096Z,377.62
2016-07-21T13:34:06.123Z,381.02
2016-07-21T13:35:06.117Z,387.79
2016-07-21T13:36:06.138Z,398.33
2016-07-21T13:37:06.109Z,406.35
2016-07-21T13:38:06.124Z,416.52
2016-07-21T13:39:06.138Z,429.95
2016-07-21T13:40:06.117Z,443.2
2016-07-21T13:41:06.124Z,461.29
2016-07-21T13:42:06.127Z,479.13
2016-07-21T13:43:06.128Z,491.34
2016-07-21T13:44:06.128Z,503.21
2016-07-21T13:45:06.207Z,517.07
2016-07-21T13:46:06.144Z,528.53
2016-07-21T13:47:06.117Z,538.01
2016-07-21T13:48:06.132Z,544.65
2016-07-21T13:49:06.110Z,553.63
2016-07-21T13:50:06.139Z,562.01
2016-07-21T13:51:06.217Z,568.92
2016-07-21T13:52:06.137Z,575.24
2016-07-21T13:53:06.126Z,580.93
2016-07-21T13:54:06.137Z,586.17
2016-07-21T13:55:06.126Z,591.2
2016-07-21T13:56:06.188Z,594.32
2016-07-21T13:57:06.141Z,598.17
2016-07-21T13:58:06.140Z,603.55